Tulsa, Oklahoma
Current Conditions -  °F | °C
As of 2:53 AM on Thursday 23 Oct 2014 (Local Time) from KTUL Reporting Station
Overcast Overcast  
Wind Chill: 63°   Ceiling: 10000
Heat Index: 63°   Visibility: 10mi
Dew Point: 60°   Wind: 5mph
Humidity: 90%   Direction: 160°SSE
Pressure: 30.11"   Gusts: NA
Location:  36.15°N, 95.99°W
Report Text: KTUL 230753Z 16004KT 10SM SCT044 SCT080 OVC100 17/16 A3011 RMK AO2 RAE07 SLP191 P0001 T01720156 $
Loading
Personal Weather Stations






























Interactive Weather Map
Tropical Storm Tracking
New forecast layout! Learn more

10-Day Weather Forecast

Advertisements
Track Severe Weather on mobile